Skip Navigation Links Skip Navigation Links

Current Weather

Allegheny County, Pittsburgh, Penn.

For information only: do not use for flight planning or navigation.
Latest weather
Observation time Tuesday, January 26, 2021 7:25 PM EST
Local time Tuesday, January 26, 2021 7:56 PM EST
Flight conditions Marginal Visual Meteorological Conditions
Winds
Wind direction West (260°)
Wind speed 15 mph
Wind gusting to 25 mph
Visibility 10 mi.
Sky condition
Ceiling 2,600 ft. broken clouds
Cloud layer scattered clouds 1,800 ft.
Cloud layer broken clouds 2,600 ft.
Cloud layer overcast 3,500 ft.
Temperature 40°F
Dewpoint 36°F
Altimeter 29.81 in.Hg
Precipitation
Rain began 6:57 PM
Rain ended 7:10 PM
Precipitation last hour trace
Derived measurements
Relative humidity 86%
Wind chill 32°F
Density altitude 204 ft.
Remarks
Automated weather observing station with precipitation discriminator.
METAR KAGC 270025Z 26013G22KT 10SM SCT018 BKN026 OVC035 04/02 A2981 RMK AO2 RAB2357E10 P0000 T00440022

Settings

Location code

InnerDrive.Weather 4.0.6770.0 Release CLR 4.0.30319.42000
Copyright ©2018 Inner Drive Technology. All rights reserved. Portions Copyright ©1986-2018 David Braverman.

Find weather

Site navigation


Skip Navigation Links

Place info

Page info

PayPal - The safer, easier way to pay online!

Return home.

Copyright ©2021 Inner Drive Technology. Purveyors of fine, hand-crafted computer software. Page printed 2021-01-27T00:56:35 UTC.